Time;durP1;ratioP1;P1;durP2;ratioP2;P2;SDS_P1;SDS_P2;PMS_P1;PMS_P2;Temp;Humidity;BMP_temperature;BMP_pressure;BME280_temperature;BME280_humidity;BME280_pressure;Samples;Min_cycle;Max_cycle;Signal;HPM_P1;HPM_P2
2021/12/09 00:04:23;;;;;;;;;;;1.80;99.90;;;0.75;100.00;94115.81;10285747;28;2356;-72
2021/12/09 00:09:46;;;;;;;;;;;1.90;99.90;;;0.77;100.00;94126.97;10265435;28;2145;-71
2021/12/09 00:15:09;;;;;;;;;;;1.90;99.90;;;0.76;100.00;94125.34;10288264;28;1977;-72
2021/12/09 00:20:33;;;;;;;;;;;1.90;99.90;;;0.78;100.00;94117.97;10275948;28;2005;-73
2021/12/09 00:25:36;;;;;;;;;;;1.90;99.90;;;0.83;100.00;94118.03;10285323;28;2013;-72
2021/12/09 00:30:39;;;;;;;;;;;1.90;99.90;;;0.81;100.00;94106.88;10282668;28;2006;-73
2021/12/09 00:35:46;;;;;;;;;;;1.90;99.90;;;0.72;100.00;94114.50;10288350;28;1970;-72
2021/12/09 00:40:49;;;;;;;;;;;1.60;99.90;;;0.77;100.00;94116.38;10279754;28;1907;-72
2021/12/09 00:45:52;;;;;;;;;;;1.80;99.90;;;0.72;100.00;94138.28;10282963;28;1962;-72
2021/12/09 00:50:55;;;;;;;;;;;1.90;99.90;;;0.62;100.00;94126.81;10285912;28;1894;-71
2021/12/09 00:55:58;;;;;;;;;;;1.70;99.90;;;0.69;100.00;94133.50;10281368;28;1848;-72
2021/12/09 01:01:01;;;;;;;;;;;1.90;99.90;;;0.65;100.00;94128.97;10293393;28;1902;-73
2021/12/09 01:06:04;;;;;;;;;;;1.80;99.90;;;0.71;100.00;94123.47;10277995;28;1971;-73
2021/12/09 01:11:15;;;;;;;;;;;2.00;99.90;;;0.59;100.00;94132.63;10283279;28;2090;-71
2021/12/09 01:16:18;;;;;;;;;;;1.70;99.90;;;0.51;100.00;94163.75;10253491;28;2080;-71
2021/12/09 01:21:21;;;;;;;;;;;1.70;99.90;;;0.47;100.00;94160.00;10268827;28;1984;-72
2021/12/09 01:26:26;;;;;;;;;;;1.60;99.90;;;0.34;100.00;94149.03;10288957;28;2188;-72
2021/12/09 01:31:33;;;;;;;;;;;1.50;99.90;;;0.18;100.00;94117.16;10285096;28;2032;-72
2021/12/09 01:36:36;;;;;;;;;;;1.40;99.90;;;0.09;100.00;94131.09;10291660;28;2084;-71
2021/12/09 01:41:39;;;;;;;;;;;1.30;99.90;;;0.16;100.00;94140.41;10294701;28;2183;-70
2021/12/09 01:46:43;;;;;;;;;;;1.40;99.90;;;0.20;100.00;94153.94;10298458;28;2039;-71
2021/12/09 01:51:46;;;;;;;;;;;1.20;99.90;;;0.16;100.00;94160.75;10288955;28;2087;-71
2021/12/09 01:56:49;;;;;;;;;;;1.30;99.90;;;0.14;100.00;94163.66;10267518;28;2135;-72
2021/12/09 02:01:52;;;;;;;;;;;1.40;99.90;;;0.08;100.00;94174.41;10253897;28;2152;-71
2021/12/09 02:06:56;;;;;;;;;;;1.30;99.90;;;0.08;100.00;94177.84;10283984;28;2118;-72
2021/12/09 02:12:19;;;;;;;;;;;1.30;99.90;;;0.08;100.00;94187.63;10285895;28;2181;-70
2021/12/09 02:17:42;;;;;;;;;;;1.40;99.90;;;0.02;100.00;94189.41;10285764;28;2185;-71
2021/12/09 02:22:46;;;;;;;;;;;1.00;99.90;;;0.02;100.00;94188.59;10291100;28;2360;-71
2021/12/09 02:27:51;;;;;;;;;;;1.10;99.90;;;-0.11;100.00;94187.13;10301231;28;2039;-72
2021/12/09 02:33:14;;;;;;;;;;;1.10;99.90;;;-0.07;100.00;94189.00;10284324;28;2095;-72
2021/12/09 02:38:43;;;;;;;;;;;1.00;99.90;;;-0.06;100.00;94189.84;10286316;28;1980;-72
2021/12/09 02:44:06;;;;;;;;;;;1.00;99.90;;;-0.07;100.00;94185.56;10288227;28;2045;-70
2021/12/09 02:49:19;;;;;;;;;;;1.10;99.90;;;-0.11;100.00;94168.63;10269896;28;2060;-71
2021/12/09 02:54:42;;;;;;;;;;;1.20;99.90;;;-0.14;100.00;94171.75;10285826;28;1924;-71
2021/12/09 03:00:06;;;;;;;;;;;0.90;99.90;;;-0.13;100.00;94186.56;10282594;28;1925;-71
2021/12/09 03:05:09;;;;;;;;;;;1.00;99.90;;;-0.17;100.00;94199.47;10278653;28;1949;-71
2021/12/09 03:10:33;;;;;;;;;;;1.10;99.90;;;-0.10;100.00;94199.28;10290058;28;2056;-71
2021/12/09 03:15:56;;;;;;;;;;;0.90;99.90;;;-0.14;100.00;94212.16;10304568;28;1838;-71
2021/12/09 03:21:00;;;;;;;;;;;0.90;99.90;;;-0.09;100.00;94209.59;10298327;28;1973;-70
2021/12/09 03:26:03;;;;;;;;;;;1.00;99.90;;;-0.10;100.00;94212.50;10298654;28;1803;-70
2021/12/09 03:31:06;;;;;;;;;;;0.90;99.90;;;-0.12;100.00;94230.44;10281218;28;2043;-71
2021/12/09 03:36:09;;;;;;;;;;;0.30;99.90;;;-0.08;100.00;94234.16;10289551;28;1476;-72
2021/12/09 03:41:13;;;;;;;;;;;1.00;99.90;;;-0.06;100.00;94232.09;10280428;28;1915;-71
2021/12/09 03:46:17;;;;;;;;;;;0.90;99.90;;;-0.10;100.00;94236.25;10286376;28;2048;-71
2021/12/09 03:51:20;;;;;;;;;;;1.00;99.90;;;-0.05;100.00;94231.84;10285973;28;1901;-72
2021/12/09 03:56:23;;;;;;;;;;;1.00;99.90;;;-0.12;100.00;94225.94;10293067;28;1909;-71
2021/12/09 04:01:26;;;;;;;;;;;1.00;99.90;;;-0.09;100.00;94241.28;10279676;28;2029;-71
2021/12/09 04:06:30;;;;;;;;;;;1.00;99.90;;;-0.11;100.00;94259.25;10268299;28;1918;-71
2021/12/09 04:11:33;;;;;;;;;;;0.90;99.90;;;-0.08;100.00;94248.16;10284215;28;1925;-71
2021/12/09 04:16:36;;;;;;;;;;;1.00;99.90;;;-0.07;100.00;94244.47;10283601;28;1940;-71
2021/12/09 04:21:59;;;;;;;;;;;1.00;99.90;;;-0.10;100.00;94255.56;10273060;28;2148;-72
2021/12/09 04:27:23;;;;;;;;;;;0.90;99.90;;;-0.08;100.00;94261.38;10274986;28;2007;-71
2021/12/09 04:32:46;;;;;;;;;;;1.00;99.90;;;-0.09;100.00;94245.78;10290373;28;2041;-70
2021/12/09 04:38:09;;;;;;;;;;;1.00;99.90;;;-0.06;100.00;94240.81;10275094;28;1957;-69
2021/12/09 04:43:32;;;;;;;;;;;1.00;99.90;;;-0.07;100.00;94248.97;10288269;28;1914;-71
2021/12/09 04:48:56;;;;;;;;;;;1.00;99.90;;;-0.11;100.00;94264.53;10293589;28;1918;-72
2021/12/09 04:54:19;;;;;;;;;;;1.00;99.90;;;-0.05;100.00;94255.63;10297254;28;1943;-71
2021/12/09 04:59:42;;;;;;;;;;;1.00;99.90;;;-0.04;100.00;94269.63;10293586;28;1877;-71
2021/12/09 05:04:47;;;;;;;;;;;1.00;99.90;;;-0.07;100.00;94273.53;10293552;28;1972;-71
2021/12/09 05:09:52;;;;;;;;;;;1.00;99.90;;;-0.01;100.00;94279.69;10279965;28;2155;-70
2021/12/09 05:14:55;;;;;;;;;;;1.00;99.90;;;-0.03;100.00;94287.88;10289218;28;2041;-70
2021/12/09 05:19:58;;;;;;;;;;;1.00;99.90;;;-0.05;100.00;94294.44;10292511;28;2106;-70
2021/12/09 05:25:01;;;;;;;;;;;1.00;99.90;;;0.02;100.00;94299.56;10294018;28;1981;-70
2021/12/09 05:30:07;;;;;;;;;;;1.00;99.90;;;-0.04;100.00;94312.69;10287463;28;1949;-71
2021/12/09 05:35:10;;;;;;;;;;;1.10;99.90;;;0.02;100.00;94320.69;10289946;28;1869;-72
2021/12/09 05:40:15;;;;;;;;;;;1.00;99.90;;;-0.04;100.00;94352.31;10295477;28;1890;-72
2021/12/09 05:45:18;;;;;;;;;;;1.00;99.90;;;-0.01;100.00;94365.03;10288334;28;1930;-71
2021/12/09 05:50:21;;;;;;;;;;;1.00;99.90;;;-0.05;100.00;94371.84;10291871;28;1906;-71
2021/12/09 05:55:24;;;;;;;;;;;1.00;99.90;;;0.01;100.00;94377.22;10284864;28;2011;-70
2021/12/09 06:00:27;;;;;;;;;;;1.00;99.90;;;0.02;100.00;94378.81;10282903;28;2281;-70
2021/12/09 06:05:30;;;;;;;;;;;1.00;99.90;;;0.01;100.00;94371.94;10274510;28;2069;-70
2021/12/09 06:10:34;;;;;;;;;;;1.10;99.90;;;-0.06;100.00;94382.66;10286875;28;1902;-71
2021/12/09 06:15:37;;;;;;;;;;;1.00;99.90;;;-0.06;100.00;94375.53;10290879;28;1937;-71
2021/12/09 06:20:40;;;;;;;;;;;1.00;99.90;;;-0.02;100.00;94379.28;10282204;28;2177;-71
2021/12/09 06:25:44;;;;;;;;;;;1.10;99.90;;;-0.07;100.00;94392.41;10286733;28;2170;-71
2021/12/09 06:30:47;;;;;;;;;;;1.00;99.90;;;-0.10;100.00;94379.69;10271797;28;1977;-69
2021/12/09 06:35:50;;;;;;;;;;;1.00;99.90;;;-0.04;100.00;94391.94;10267432;28;2297;-71
2021/12/09 06:40:53;;;;;;;;;;;1.20;99.90;;;-0.04;100.00;94385.84;10251913;28;2071;-70
2021/12/09 06:45:56;;;;;;;;;;;1.00;99.90;;;-0.04;100.00;94370.81;10290703;28;2379;-70
2021/12/09 06:51:01;;;;;;;;;;;1.00;99.90;;;-0.04;100.00;94376.09;10282630;28;1958;-70
2021/12/09 06:56:04;;;;;;;;;;;1.00;99.90;;;-0.05;100.00;94378.97;10283163;28;1908;-72
2021/12/09 07:01:08;;;;;;;;;;;1.00;99.90;;;-0.05;100.00;94373.69;10282259;28;1882;-71
2021/12/09 07:06:12;;;;;;;;;;;1.00;99.90;;;-0.04;100.00;94386.66;10289214;28;1968;-71
2021/12/09 07:11:15;;;;;;;;;;;1.10;99.90;;;-0.08;100.00;94384.72;10288003;28;1871;-72
2021/12/09 07:16:18;;;;;;;;;;;1.00;99.90;;;-0.06;100.00;94401.16;10283728;28;1870;-70
2021/12/09 07:21:21;;;;;;;;;;;1.00;99.90;;;-0.03;100.00;94405.94;10280945;28;1973;-72
2021/12/09 07:26:24;;;;;;;;;;;1.00;99.90;;;-0.02;100.00;94404.91;10285989;28;1952;-71
2021/12/09 07:31:27;;;;;;;;;;;1.00;99.90;;;-0.06;100.00;94417.81;10265880;28;2038;-74
2021/12/09 07:36:30;;;;;;;;;;;1.00;99.90;;;-0.03;100.00;94425.22;10278864;28;1917;-73
2021/12/09 07:41:33;;;;;;;;;;;1.00;99.90;;;0.05;100.00;94416.09;10266490;28;1993;-72
2021/12/09 07:46:36;;;;;;;;;;;1.10;99.90;;;0.07;100.00;94413.25;10269219;28;1996;-73
2021/12/09 07:51:39;;;;;;;;;;;1.10;99.90;;;0.12;100.00;94416.72;10280791;28;1953;-73
2021/12/09 07:56:42;;;;;;;;;;;1.10;99.90;;;0.11;100.00;94430.19;10269521;28;1956;-74
2021/12/09 08:01:44;;;;;;;;;;;1.10;99.90;;;0.11;100.00;94430.19;10278035;28;1924;-73
2021/12/09 08:06:48;;;;;;;;;;;1.10;99.90;;;0.14;100.00;94435.00;10286535;28;1914;-76
2021/12/09 08:11:51;;;;;;;;;;;1.20;99.90;;;0.18;100.00;94451.97;10295333;28;1217;-75
2021/12/09 08:17:09;;;;;;;;;;;1.30;99.90;;;0.30;100.00;94465.91;10295018;28;1905;-74
2021/12/09 08:22:15;;;;;;;;;;;1.30;99.90;;;0.22;100.00;94474.25;10289106;28;2074;-72
2021/12/09 08:27:18;;;;;;;;;;;1.30;99.90;;;0.21;100.00;94493.78;10285935;28;1937;-74
2021/12/09 08:32:21;;;;;;;;;;;1.30;99.90;;;0.34;100.00;94496.09;10279623;28;2176;-74
2021/12/09 08:37:24;;;;;;;;;;;1.30;99.90;;;0.31;100.00;94491.28;10289686;28;1994;-75
2021/12/09 08:42:27;;;;;;;;;;;1.30;99.90;;;0.31;100.00;94488.63;10277906;28;1973;-74
2021/12/09 08:47:30;;;;;;;;;;;1.30;99.90;;;0.23;100.00;94486.41;10287685;28;1940;-74
2021/12/09 08:52:33;;;;;;;;;;;1.30;99.90;;;0.30;100.00;94497.63;10283026;28;1962;-73
2021/12/09 08:57:37;;;;;;;;;;;1.30;99.90;;;0.20;100.00;94508.03;10290272;28;2258;-72
2021/12/09 09:02:40;;;;;;;;;;;1.20;99.90;;;0.26;100.00;94512.38;10267712;28;2019;-73
2021/12/09 09:07:43;;;;;;;;;;;1.20;99.90;;;0.10;100.00;94511.31;10276351;28;2305;-74
2021/12/09 09:12:46;;;;;;;;;;;1.20;99.90;;;0.04;100.00;94522.81;10289371;28;1982;-76
2021/12/09 09:17:49;;;;;;;;;;;1.10;99.90;;;0.19;100.00;94536.31;10278762;28;2016;-74
2021/12/09 09:22:52;;;;;;;;;;;2.00;99.90;;;0.29;100.00;94542.78;10266132;28;2008;-75
2021/12/09 09:27:55;;;;;;;;;;;1.20;99.90;;;0.40;100.00;94542.72;10261739;28;1985;-75
2021/12/09 09:32:58;;;;;;;;;;;1.30;99.90;;;0.45;100.00;94542.00;10282161;28;2212;-75
2021/12/09 09:38:01;;;;;;;;;;;1.40;99.90;;;0.46;100.00;94536.47;10312848;28;2070;-74
2021/12/09 09:43:13;;;;;;;;;;;1.50;99.90;;;0.64;100.00;94540.72;10299125;28;1925;-73
2021/12/09 09:48:16;;;;;;;;;;;1.50;99.90;;;0.71;100.00;94532.63;10275435;28;2017;-74
2021/12/09 09:53:19;;;;;;;;;;;1.60;99.90;;;0.72;100.00;94536.88;10274971;28;2201;-75
2021/12/09 09:58:22;;;;;;;;;;;1.60;99.90;;;0.75;100.00;94541.66;10279482;28;1917;-74
2021/12/09 10:03:29;;;;;;;;;;;1.60;99.90;;;0.78;100.00;94546.47;10290754;28;2053;-71
2021/12/09 10:08:32;;;;;;;;;;;1.60;99.90;;;0.86;100.00;94548.72;10286014;28;2045;-73
2021/12/09 10:13:35;;;;;;;;;;;1.70;99.90;;;0.88;100.00;94541.31;10291139;28;1899;-72
2021/12/09 10:18:39;;;;;;;;;;;1.80;99.90;;;1.06;100.00;94533.09;10289292;28;2067;-73
2021/12/09 10:23:42;;;;;;;;;;;1.90;99.90;;;1.12;100.00;94541.13;10263964;28;1989;-73
2021/12/09 10:28:49;;;;;;;;;;;2.10;99.90;;;1.06;100.00;94546.34;10256879;28;2076;-73
2021/12/09 10:33:58;;;;;;;;;;;2.00;99.90;;;1.29;100.00;94547.19;10252817;28;2094;-74
2021/12/09 10:39:01;;;;;;;;;;;2.00;99.90;;;1.44;100.00;94550.00;10282689;28;2037;-74
2021/12/09 10:44:04;;;;;;;;;;;2.10;99.90;;;1.33;100.00;94538.47;10268524;28;2069;-76
2021/12/09 10:49:07;;;;;;;;;;;2.20;99.90;;;1.35;100.00;94547.00;10255646;28;2117;-74
2021/12/09 10:54:10;;;;;;;;;;;2.30;99.90;;;1.34;100.00;94560.50;10252266;28;2101;-76
2021/12/09 10:59:13;;;;;;;;;;;2.20;99.90;;;1.22;100.00;94557.16;10283920;28;2017;-75
2021/12/09 11:04:16;;;;;;;;;;;2.20;99.90;;;1.12;100.00;94552.50;10283412;28;1988;-76
2021/12/09 11:09:22;;;;;;;;;;;2.10;99.90;;;1.21;100.00;94555.53;10282919;28;1978;-76
2021/12/09 11:14:28;;;;;;;;;;;2.10;99.90;;;1.20;100.00;94561.88;10279843;28;1954;-75
2021/12/09 11:19:36;;;;;;;;;;;2.10;99.90;;;1.27;100.00;94565.97;10283595;28;1882;-75
2021/12/09 11:24:42;;;;;;;;;;;2.20;99.90;;;1.30;100.00;94564.66;10288951;28;1907;-75
2021/12/09 11:29:47;;;;;;;;;;;2.30;99.90;;;1.46;100.00;94558.50;10278587;28;1905;-75
2021/12/09 11:34:54;;;;;;;;;;;2.30;99.90;;;1.52;100.00;94557.50;10275717;28;1901;-75
2021/12/09 11:39:57;;;;;;;;;;;2.40;99.90;;;1.42;100.00;94562.69;10278521;28;1937;-74
2021/12/09 11:45:00;;;;;;;;;;;2.30;99.90;;;1.42;100.00;94564.56;10279188;28;1966;-74
2021/12/09 11:50:09;;;;;;;;;;;2.30;99.90;;;1.44;100.00;94571.19;10280402;28;2029;-75
2021/12/09 11:55:14;;;;;;;;;;;2.30;99.90;;;1.47;100.00;94561.97;10289840;28;1775;-73
2021/12/09 12:11:21;;;;;;;;;;;2.50;99.90;;;1.37;100.00;94562.63;10267318;28;1927;-74
2021/12/09 12:16:24;;;;;;;;;;;2.40;99.90;;;1.33;100.00;94564.16;10278764;28;2233;-73
2021/12/09 12:21:43;;;;;;;;;;;2.30;99.90;;;1.30;100.00;94564.66;10272129;28;2212;-71
2021/12/09 12:26:56;;;;;;;;;;;2.20;99.90;;;1.30;100.00;94564.66;10271922;28;1967;-72
2021/12/09 12:32:20;;;;;;;;;;;2.20;99.90;;;1.40;100.00;94569.28;10258859;28;2106;-76
2021/12/09 12:37:24;;;;;;;;;;;2.30;99.90;;;1.40;100.00;94575.41;10272662;28;1957;-73
2021/12/09 12:42:42;;;;;;;;;;;2.30;99.90;;;1.35;100.00;94583.25;10261701;28;1972;-72
2021/12/09 12:47:53;;;;;;;;;;;2.30;99.90;;;1.39;100.00;94586.22;10263025;28;2016;-71
2021/12/09 12:52:57;;;;;;;;;;;2.40;99.90;;;1.52;100.00;94584.00;10275039;28;1988;-71
2021/12/09 12:58:00;;;;;;;;;;;2.40;99.90;;;1.40;100.00;94591.28;10278157;28;2480;-72
2021/12/09 13:03:19;;;;;;;;;;;2.40;99.90;;;1.30;100.00;94588.50;10272088;28;2316;-77
2021/12/09 13:08:41;;;;;;;;;;;2.40;99.90;;;1.41;100.00;94584.13;10287766;28;1944;-77
2021/12/09 13:19:13;;;;;;;;;;;2.80;99.90;;;1.48;100.00;94588.19;10293919;28;2045;-75
2021/12/09 13:24:16;;;;;;;;;;;2.40;99.90;;;1.47;100.00;94576.00;10271443;28;2173;-75
2021/12/09 13:29:31;;;;;;;;;;;2.40;99.90;;;1.37;100.00;94573.22;10272367;28;2078;-76
2021/12/09 13:34:45;;;;;;;;;;;2.30;99.90;;;1.46;100.00;94574.38;10272521;28;2453;-77
2021/12/09 13:50:54;;;;;;;;;;;2.90;99.90;;;1.55;100.00;94582.72;10248821;28;1969;-78
2021/12/09 13:55:57;;;;;;;;;;;2.50;99.90;;;1.49;100.00;94589.78;10275582;28;2076;-76
2021/12/09 14:00:59;;;;;;;;;;;2.50;99.90;;;1.53;100.00;94592.78;10282664;28;1969;-76
2021/12/09 14:06:05;;;;;;;;;;;2.50;99.90;;;1.57;100.00;94599.97;10261050;28;2148;-74
2021/12/09 14:11:10;;;;;;;;;;;2.60;99.90;;;1.50;100.00;94599.34;10279041;28;1933;-76
2021/12/09 14:16:23;;;;;;;;;;;2.60;99.90;;;1.50;100.00;94617.06;10297270;28;1890;-76
2021/12/09 14:21:46;;;;;;;;;;;2.60;99.90;;;1.41;100.00;94618.56;10275706;28;1954;-75
2021/12/09 14:26:49;;;;;;;;;;;2.50;99.90;;;1.47;100.00;94612.28;10273077;28;1963;-75
2021/12/09 14:31:52;;;;;;;;;;;2.50;99.90;;;1.41;100.00;94619.34;10274822;28;2031;-73
2021/12/09 14:36:55;;;;;;;;;;;2.40;99.90;;;1.41;100.00;94624.66;10278519;28;2005;-71
2021/12/09 14:41:58;;;;;;;;;;;2.50;99.90;;;1.40;100.00;94628.34;10269375;28;2025;-72
2021/12/09 14:47:01;;;;;;;;;;;2.40;99.90;;;1.34;100.00;94642.56;10262932;28;2196;-73
2021/12/09 14:52:05;;;;;;;;;;;2.40;99.90;;;1.32;100.00;94647.28;10270939;28;1949;-72
2021/12/09 14:57:08;;;;;;;;;;;2.40;99.90;;;1.22;100.00;94647.16;10269375;28;1932;-73
2021/12/09 15:02:13;;;;;;;;;;;2.30;99.90;;;1.23;100.00;94657.50;10273760;28;2036;-73
2021/12/09 15:07:30;;;;;;;;;;;2.30;99.90;;;1.14;100.00;94656.28;10261977;28;2295;-71
2021/12/09 15:12:33;;;;;;;;;;;2.20;99.90;;;1.16;100.00;94654.22;10267195;28;2140;-72
2021/12/09 15:41:59;;;;;;;;;;;2.20;99.90;;;1.13;100.00;94662.63;10314650;28;2045;-69
2021/12/09 15:59:34;;;;;;;;;;;2.20;99.90;;;1.10;100.00;94678.19;10386925;23;2103;-71
2021/12/09 16:04:57;;;;;;;;;;;2.20;99.90;;;1.08;100.00;94684.53;10486421;28;2051;-71
2021/12/09 16:10:20;;;;;;;;;;;2.20;99.90;;;1.17;100.00;94673.53;10516898;28;1935;-73
2021/12/09 16:15:55;;;;;;;;;;;2.20;99.90;;;1.21;100.00;94678.13;10522406;28;2066;-71
2021/12/09 16:21:18;;;;;;;;;;;2.30;99.90;;;1.15;100.00;94670.34;10503316;28;1858;-72
2021/12/09 16:26:41;;;;;;;;;;;2.20;99.90;;;1.13;100.00;94670.56;10497008;28;1996;-72
2021/12/09 16:32:05;;;;;;;;;;;2.20;99.90;;;1.06;100.00;94664.63;10498841;28;2025;-72
2021/12/09 16:37:28;;;;;;;;;;;2.20;99.90;;;1.12;100.00;94676.09;10496329;28;1928;-70
2021/12/09 16:42:51;;;;;;;;;;;2.10;99.90;;;1.13;100.00;94669.75;10529202;28;1979;-72
2021/12/09 16:48:15;;;;;;;;;;;2.00;99.90;;;1.13;100.00;94667.13;10538003;28;2117;-72
2021/12/09 16:53:44;;;;;;;;;;;2.00;99.90;;;1.12;100.00;94668.97;10531019;28;2162;-71
2021/12/09 16:59:12;;;;;;;;;;;2.10;99.90;;;1.05;100.00;94673.63;10542255;28;1834;-69
2021/12/09 17:04:35;;;;;;;;;;;1.90;99.90;;;1.00;100.00;94676.97;10540649;28;1969;-71
2021/12/09 17:09:59;;;;;;;;;;;1.90;99.90;;;1.05;100.00;94673.63;10536691;28;2003;-72
2021/12/09 17:15:22;;;;;;;;;;;2.00;99.90;;;1.05;100.00;94674.41;10501672;28;1982;-71
2021/12/09 17:20:46;;;;;;;;;;;2.10;99.90;;;1.01;100.00;94688.38;10501569;28;1914;-71
2021/12/09 17:26:09;;;;;;;;;;;2.00;99.90;;;1.04;100.00;94694.00;10559059;28;1882;-72
2021/12/09 17:31:41;;;;;;;;;;;2.00;99.90;;;1.01;100.00;94689.16;10540568;28;1977;-71
2021/12/09 17:37:05;;;;;;;;;;;1.90;99.90;;;0.92;100.00;94695.91;10554638;28;1936;-71
2021/12/09 17:42:28;;;;;;;;;;;1.90;99.90;;;0.94;100.00;94707.03;10506821;28;1944;-72
2021/12/09 17:47:51;;;;;;;;;;;1.90;99.90;;;0.96;100.00;94707.63;10500956;28;2008;-71
2021/12/09 17:53:16;;;;;;;;;;;1.80;99.90;;;0.94;100.00;94709.69;10496825;28;1969;-71
2021/12/09 17:58:39;;;;;;;;;;;1.90;99.90;;;0.95;100.00;94703.34;10515607;28;2091;-70
2021/12/09 18:04:03;;;;;;;;;;;2.00;99.90;;;0.99;100.00;94711.63;10529886;28;1893;-71
2021/12/09 18:09:26;;;;;;;;;;;2.00;99.90;;;1.03;100.00;94718.06;10507654;28;1887;-71
2021/12/09 18:14:49;;;;;;;;;;;2.00;99.90;;;1.00;100.00;94708.72;10527256;28;1948;-71
2021/12/09 18:20:13;;;;;;;;;;;2.00;99.90;;;1.02;100.00;94711.16;10532749;28;1854;-71
2021/12/09 18:25:36;;;;;;;;;;;2.10;99.90;;;0.99;100.00;94711.63;10528719;28;1913;-72
2021/12/09 18:31:14;;;;;;;;;;;2.10;99.90;;;0.98;100.00;94713.47;10531361;28;1796;-72
2021/12/09 18:36:39;;;;;;;;;;;2.00;99.90;;;0.94;100.00;94714.97;10530348;28;1873;-71
2021/12/09 18:42:02;;;;;;;;;;;2.10;99.90;;;0.95;100.00;94711.28;10509236;28;1948;-72
2021/12/09 18:47:26;;;;;;;;;;;2.00;99.90;;;0.92;100.00;94709.13;10502985;28;2015;-70
2021/12/09 18:52:49;;;;;;;;;;;2.00;99.90;;;0.91;100.00;94712.03;10511431;28;1999;-70
2021/12/09 18:58:21;;;;;;;;;;;1.90;99.90;;;0.94;100.00;94709.69;10511144;28;1980;-70
2021/12/09 19:03:44;;;;;;;;;;;2.00;99.90;;;0.96;100.00;94707.63;10524510;28;1886;-71
2021/12/09 19:09:07;;;;;;;;;;;2.00;99.90;;;0.94;100.00;94708.88;10538369;28;1898;-72
2021/12/09 19:14:30;;;;;;;;;;;2.00;99.90;;;0.99;100.00;94715.06;10524152;28;1988;-70
2021/12/09 19:19:54;;;;;;;;;;;2.10;99.90;;;1.03;100.00;94708.28;10500219;28;2132;-70
2021/12/09 19:25:17;;;;;;;;;;;2.10;99.90;;;1.02;100.00;94701.38;10521769;28;1944;-71
2021/12/09 19:30:42;;;;;;;;;;;2.10;99.90;;;1.08;100.00;94699.59;10523104;28;1672;-71
2021/12/09 19:36:05;;;;;;;;;;;2.10;99.90;;;1.01;100.00;94699.75;10536291;28;1306;-71
2021/12/09 19:41:28;;;;;;;;;;;2.10;99.90;;;1.06;100.00;94691.91;10525142;28;1482;-73
2021/12/09 19:46:52;;;;;;;;;;;2.10;99.90;;;1.05;100.00;94689.50;10519644;28;1913;-73
2021/12/09 19:52:15;;;;;;;;;;;2.30;99.90;;;1.05;100.00;94682.34;10523746;28;1347;-73
2021/12/09 19:57:39;;;;;;;;;;;2.10;99.90;;;1.04;100.00;94679.97;10527511;28;1441;-73
2021/12/09 20:03:02;;;;;;;;;;;2.20;99.90;;;1.07;100.00;94690.84;10553000;28;1413;-72
2021/12/09 20:08:30;;;;;;;;;;;2.10;99.90;;;1.04;100.00;94679.97;10549426;28;1971;-73
2021/12/09 20:13:53;;;;;;;;;;;2.10;99.90;;;1.04;100.00;94680.75;10539501;28;1172;-73
2021/12/09 20:19:16;;;;;;;;;;;2.20;99.90;;;1.01;100.00;94683.88;10557193;28;1401;-74
2021/12/09 20:25:00;;;;;;;;;;;2.00;99.90;;;0.98;100.00;94681.72;10560313;28;1961;-70
2021/12/09 20:30:23;;;;;;;;;;;2.10;99.90;;;1.01;100.00;94680.44;10556717;28;1649;-74
2021/12/09 20:35:46;;;;;;;;;;;2.00;99.90;;;0.93;100.00;94675.53;10546307;28;1129;-69
2021/12/09 20:41:09;;;;;;;;;;;2.10;99.90;;;0.99;100.00;94672.72;10551014;28;1454;-72
2021/12/09 20:46:32;;;;;;;;;;;2.10;99.90;;;0.92;100.00;94664.16;10554469;28;1891;-71
2021/12/09 20:51:56;;;;;;;;;;;2.00;99.90;;;0.87;100.00;94650.03;10577822;28;1544;-70
2021/12/09 20:57:19;;;;;;;;;;;2.00;99.90;;;0.83;100.00;94652.38;10578223;28;1345;-71
2021/12/09 21:02:43;;;;;;;;;;;2.00;99.90;;;0.80;100.00;94643.06;10571640;28;1430;-72
2021/12/09 21:08:06;;;;;;;;;;;1.90;99.90;;;0.73;100.00;94641.63;10562171;28;1910;-72
2021/12/09 21:13:30;;;;;;;;;;;1.90;99.90;;;0.70;100.00;94642.09;10545023;28;1989;-72
2021/12/09 21:18:53;;;;;;;;;;;1.80;99.90;;;0.63;100.00;94633.50;10545685;28;1433;-75
2021/12/09 21:24:16;;;;;;;;;;;1.80;99.90;;;0.50;100.00;94622.19;10545429;28;1394;-73
2021/12/09 21:29:41;;;;;;;;;;;1.70;99.90;;;0.41;100.00;94606.97;10537846;28;1910;-73
2021/12/09 21:35:13;;;;;;;;;;;1.70;99.90;;;0.37;100.00;94598.69;10518840;28;1954;-72
2021/12/09 21:40:36;;;;;;;;;;;1.60;99.90;;;0.31;100.00;94609.44;10526668;28;1849;-72
2021/12/09 21:45:59;;;;;;;;;;;1.60;99.90;;;0.26;100.00;94623.38;10545462;28;1878;-71
2021/12/09 21:51:23;;;;;;;;;;;1.60;99.90;;;0.14;100.00;94612.06;10529202;28;1821;-72
2021/12/09 21:56:46;;;;;;;;;;;1.40;99.90;;;0.04;100.00;94625.88;10536865;28;1894;-73
2021/12/09 22:02:09;;;;;;;;;;;1.30;99.90;;;-0.01;100.00;94618.66;10530073;28;1735;-73
2021/12/09 22:07:32;;;;;;;;;;;1.20;99.90;;;0.05;100.00;94621.38;10531338;28;1906;-71
2021/12/09 22:12:57;;;;;;;;;;;1.10;99.90;;;0.05;100.00;94614.25;10525694;28;1901;-71
2021/12/09 22:18:20;;;;;;;;;;;1.20;99.90;;;0.11;100.00;94609.88;10529974;28;1886;-73
2021/12/09 22:23:43;;;;;;;;;;;1.20;99.90;;;0.18;100.00;94608.69;10530324;28;1841;-72
2021/12/09 22:29:06;;;;;;;;;;;1.20;99.90;;;0.30;100.00;94600.69;10532706;28;1989;-71
2021/12/09 22:34:30;;;;;;;;;;;1.30;99.90;;;0.32;100.00;94590.72;10541317;28;1843;-73
2021/12/09 22:39:53;;;;;;;;;;;1.40;99.90;;;0.36;100.00;94591.03;10522772;28;1906;-72
2021/12/09 22:45:16;;;;;;;;;;;1.40;99.90;;;0.38;100.00;94595.03;10526452;28;1830;-73
2021/12/09 22:50:40;;;;;;;;;;;1.50;99.90;;;0.39;100.00;94586.06;10532527;28;1886;-72
2021/12/09 22:56:03;;;;;;;;;;;1.50;99.90;;;0.46;100.00;94576.13;10543573;28;1940;-73
2021/12/09 23:01:29;;;;;;;;;;;1.50;99.90;;;0.48;100.00;94563.47;10534480;28;1868;-73
2021/12/09 23:06:53;;;;;;;;;;;1.50;99.90;;;0.52;100.00;94563.81;10538257;28;2007;-72
2021/12/09 23:12:18;;;;;;;;;;;1.60;99.90;;;0.53;100.00;94558.28;10536717;28;2043;-73
2021/12/09 23:17:43;;;;;;;;;;;1.70;99.90;;;0.60;100.00;94544.88;10532191;28;1781;-72
2021/12/09 23:23:10;;;;;;;;;;;1.60;99.90;;;0.68;100.00;94530.44;10533349;28;2056;-73
2021/12/09 23:28:33;;;;;;;;;;;1.70;99.90;;;0.64;100.00;94535.44;10528713;28;1943;-72
2021/12/09 23:33:56;;;;;;;;;;;1.70;99.90;;;0.67;100.00;94529.66;10540192;28;1890;-73
2021/12/09 23:39:22;;;;;;;;;;;1.70;99.90;;;0.69;100.00;94521.47;10531620;28;1852;-71
2021/12/09 23:44:45;;;;;;;;;;;1.70;99.90;;;0.68;100.00;94520.66;10530930;28;1810;-74
2021/12/09 23:50:10;;;;;;;;;;;1.70;99.90;;;0.65;100.00;94510.59;10530070;28;1964;-72
2021/12/09 23:55:33;;;;;;;;;;;1.60;99.90;;;0.69;100.00;94495.03;10526013;28;1870;-73
